Salinas Municipal Airport Salinas US
ICAO: KSNS
IATA: SNS
Category: Medium
Scheduled Services: No

Elevation: 85 ft
TransAlt. 18000 ft.

Airport Communications:
NORCAL APP/DEP:127.15
ATIS:124.85
CTAF:119.4
GND:121.7
OAKLAND RDO:122.6
TWR:119.4
UNICOM:122.95

KSNS Zoom In..

Runways:

(A) RW 08 length 6004 ft width 150 ft
---- / hdg 81

(B) RW 13 length 4825 ft width 150 ft
---- / hdg 132

(C) RW 26 length 6004 ft width 150 ft
---- / hdg 261

(D) RW 31 length 4825 ft width 150 ft
ILS 108.50 / hdg 312

Location; KSNS
Day. 04 / Time. 12.53 Zulu
* Altimeter: 29.97
* Temperature: 09° c. 48.2°f.
* Wind from: 290° Speed 04 kn.
Dewpoint: 05° c.
Visibility: 10 Statute Miles.
Clouds: Scattered 2300 ft.

KSNS 041253Z AUTO 29004KT 10SM SCT023 09/05 A2997 RMK AO2 SLP156 T00890050


Wind From 290°
Speed 04 kn.

 
 
jpsmedia worldairports.se 2020   terms of use